Time;durP1;ratioP1;P1;durP2;ratioP2;P2;SDS_P1;SDS_P2;PMS_P1;PMS_P2;Temp;Humidity;BMP_temperature;BMP_pressure;BME280_temperature;BME280_humidity;BME280_pressure;Samples;Min_cycle;Max_cycle;Signal;HPM_P1;HPM_P2
2023/09/23 00:00:18;;;;;;;1.30;0.90;;;16.90;99.90;;;;;;6219269;23;20429;-44
2023/09/23 00:02:44;;;;;;;1.57;0.70;;;16.90;99.90;;;;;;6217581;23;20708;-42
2023/09/23 00:05:16;;;;;;;1.47;0.80;;;16.80;99.90;;;;;;6215782;23;20389;-44
2023/09/23 00:07:43;;;;;;;1.47;0.83;;;16.90;99.90;;;;;;6192104;23;20824;-44
2023/09/23 00:10:09;;;;;;;1.40;0.83;;;16.90;99.90;;;;;;6217141;23;20772;-44
2023/09/23 00:12:36;;;;;;;2.83;0.97;;;16.90;99.90;;;;;;6216670;23;20396;-44
2023/09/23 00:15:05;;;;;;;2.10;0.70;;;16.90;99.90;;;;;;6216964;23;20385;-44
2023/09/23 00:17:31;;;;;;;1.47;0.73;;;16.90;99.90;;;;;;6215358;23;20385;-44
2023/09/23 00:19:57;;;;;;;1.80;0.80;;;16.90;99.90;;;;;;6216553;23;20443;-44
2023/09/23 00:22:23;;;;;;;2.03;0.90;;;16.90;99.90;;;;;;6217915;23;20357;-44
2023/09/23 00:24:50;;;;;;;1.50;0.80;;;16.90;99.90;;;;;;6217850;23;20150;-44
2023/09/23 00:27:17;;;;;;;1.83;0.90;;;16.90;99.90;;;;;;6217836;23;20734;-44
2023/09/23 00:29:44;;;;;;;1.93;0.80;;;16.90;99.90;;;;;;6217137;23;20424;-44
2023/09/23 00:32:12;;;;;;;1.50;0.57;;;16.90;99.90;;;;;;6217577;23;20420;-44
2023/09/23 00:34:38;;;;;;;1.30;0.80;;;16.80;99.90;;;;;;6217982;23;20640;-44
2023/09/23 00:37:04;;;;;;;1.80;0.80;;;16.80;99.90;;;;;;6217996;23;20389;-44
2023/09/23 00:39:30;;;;;;;1.03;0.50;;;16.80;75.30;;;;;;6217614;23;20440;-44
2023/09/23 00:41:55;;;;;;;2.20;0.90;;;16.70;22.80;;;;;;6217803;23;20649;-44
2023/09/23 00:44:21;;;;;;;1.80;0.80;;;16.60;19.30;;;;;;6217304;23;20161;-44
2023/09/23 00:46:47;;;;;;;1.50;1.00;;;16.60;90.90;;;;;;6217685;23;20158;-44
2023/09/23 00:49:13;;;;;;;1.20;0.70;;;16.60;99.90;;;;;;6218857;23;20170;-44
2023/09/23 00:51:39;;;;;;;1.20;0.70;;;16.50;99.90;;;;;;6218331;23;20441;-44
2023/09/23 00:54:06;;;;;;;1.10;0.60;;;16.50;99.90;;;;;;6190863;23;20648;-44
2023/09/23 00:56:32;;;;;;;1.30;0.80;;;16.50;99.90;;;;;;6190896;23;20459;-44
2023/09/23 00:58:59;;;;;;;1.20;0.60;;;16.50;99.90;;;;;;6190738;23;20482;-44
2023/09/23 01:01:26;;;;;;;1.83;0.73;;;16.50;99.90;;;;;;6217393;23;20361;-44
2023/09/23 01:03:52;;;;;;;1.63;0.83;;;16.50;99.90;;;;;;6218188;23;20464;-43
2023/09/23 01:06:21;;;;;;;1.17;0.77;;;16.60;99.90;;;;;;6218046;23;20381;-44
2023/09/23 01:08:47;;;;;;;1.00;0.70;;;16.50;99.90;;;;;;6217929;23;20391;-44
2023/09/23 01:11:17;;;;;;;1.73;0.93;;;16.50;99.90;;;;;;6214913;23;20393;-44
2023/09/23 01:13:45;;;;;;;1.93;0.87;;;16.50;99.90;;;;;;6216645;23;20292;-44
2023/09/23 01:16:14;;;;;;;1.50;0.70;;;16.40;99.90;;;;;;6217737;23;20644;-44
2023/09/23 01:18:41;;;;;;;2.83;0.70;;;16.40;99.90;;;;;;6217534;23;20855;-44
2023/09/23 01:21:08;;;;;;;2.37;0.77;;;16.50;99.90;;;;;;6217916;23;20401;-44
2023/09/23 01:23:38;;;;;;;3.80;0.90;;;16.50;1.00;;;;;;6217775;23;20466;-44
2023/09/23 01:26:04;;;;;;;2.13;0.60;;;16.60;1.00;;;;;;6191335;23;20400;-44
2023/09/23 01:28:33;;;;;;;3.87;0.73;;;16.70;99.90;;;;;;6217843;23;20453;-44
2023/09/23 01:31:03;;;;;;;2.30;0.60;;;16.70;99.90;;;;;;6218146;23;20385;-44
2023/09/23 01:33:29;;;;;;;1.13;0.57;;;16.70;14.70;;;;;;6191798;23;20400;-43
2023/09/23 01:36:02;;;;;;;1.80;0.83;;;16.70;1.00;;;;;;6218134;23;20389;-44
2023/09/23 01:38:28;;;;;;;1.30;0.87;;;16.70;1.00;;;;;;6190620;23;20436;-44
2023/09/23 01:40:53;;;;;;;1.27;0.70;;;16.70;1.00;;;;;;6217017;23;20773;-44
2023/09/23 01:43:19;;;;;;;1.03;0.57;;;16.70;1.00;;;;;;6216558;23;20361;-44
2023/09/23 01:45:48;;;;;;;1.97;0.90;;;16.70;1.00;;;;;;6218529;23;20168;-44
2023/09/23 01:48:15;;;;;;;1.43;0.70;;;16.70;99.90;;;;;;6217400;23;20150;-44
2023/09/23 01:50:41;;;;;;;1.47;0.70;;;16.70;99.90;;;;;;6217625;23;20389;-45
2023/09/23 01:53:08;;;;;;;1.73;0.80;;;16.70;99.90;;;;;;6217038;23;20497;-44
2023/09/23 01:55:34;;;;;;;3.80;1.00;;;16.70;99.90;;;;;;6216029;23;20350;-44
2023/09/23 01:58:00;;;;;;;1.57;0.73;;;16.70;99.90;;;;;;6215529;23;20504;-44
2023/09/23 02:00:26;;;;;;;1.50;0.60;;;16.70;99.90;;;;;;6216710;23;20472;-44
2023/09/23 02:02:55;;;;;;;1.47;0.87;;;16.70;99.90;;;;;;6215697;23;20396;-44
2023/09/23 02:05:24;;;;;;;1.07;0.50;;;16.70;99.90;;;;;;6217205;23;20158;-45
2023/09/23 02:07:50;;;;;;;1.37;0.67;;;16.60;99.90;;;;;;6216671;23;20385;-45
2023/09/23 02:10:21;;;;;;;2.87;0.97;;;16.60;99.90;;;;;;6188973;23;20357;-44
2023/09/23 02:12:47;;;;;;;3.80;1.00;;;16.60;99.90;;;;;;6216255;23;20759;-44
2023/09/23 02:15:16;;;;;;;2.50;0.60;;;16.50;99.90;;;;;;6217215;23;20384;-44
2023/09/23 02:17:49;;;;;;;1.67;0.50;;;16.50;99.90;;;;;;6217373;23;20391;-44
2023/09/23 02:20:19;;;;;;;1.30;0.70;;;16.50;99.90;;;;;;6217616;23;20425;-44
2023/09/23 02:22:49;;;;;;;1.80;0.90;;;16.40;99.90;;;;;;6215832;23;20353;-44
2023/09/23 02:25:16;;;;;;;1.60;0.77;;;16.40;99.90;;;;;;6217081;23;20345;-44
2023/09/23 02:27:44;;;;;;;1.57;1.03;;;16.40;99.90;;;;;;6216545;23;20372;-44
2023/09/23 02:30:10;;;;;;;1.17;0.63;;;16.40;99.90;;;;;;6216684;23;20384;-45
2023/09/23 02:32:38;;;;;;;1.30;0.90;;;16.40;99.90;;;;;;6215534;23;20381;-44
2023/09/23 02:35:07;;;;;;;1.30;0.63;;;16.40;99.90;;;;;;6215433;23;20428;-44
2023/09/23 02:37:32;;;;;;;2.10;0.63;;;16.40;99.90;;;;;;6215591;23;20349;-44
2023/09/23 02:39:58;;;;;;;1.80;0.90;;;16.40;99.90;;;;;;6215494;23;20471;-44
2023/09/23 02:42:24;;;;;;;2.07;0.70;;;16.40;99.90;;;;;;6214619;23;20295;-44
2023/09/23 02:44:49;;;;;;;2.40;0.70;;;16.40;99.90;;;;;;6216481;23;20207;-44
2023/09/23 02:50:37;;;;;;;1.30;0.80;;;16.40;99.90;;;;;;6215785;23;20540;-45
2023/09/23 02:53:03;;;;;;;1.40;0.80;;;16.40;99.90;;;;;;6217053;23;20496;-44
2023/09/23 02:55:28;;;;;;;1.87;0.77;;;16.40;99.90;;;;;;6216691;23;20174;-44
2023/09/23 02:57:55;;;;;;;1.40;0.87;;;16.40;99.90;;;;;;6216747;23;20196;-44
2023/09/23 03:00:23;;;;;;;2.47;1.23;;;16.40;99.90;;;;;;6216809;23;20210;-44
2023/09/23 03:02:56;;;;;;;3.30;0.70;;;16.40;99.90;;;;;;6216597;23;20502;-45
2023/09/23 03:05:26;;;;;;;1.10;0.60;;;16.40;99.90;;;;;;6190770;23;20491;-44
2023/09/23 03:07:58;;;;;;;2.00;0.80;;;16.40;94.80;;;;;;6217614;23;20376;-44
2023/09/23 03:10:39;;;;;;;1.73;0.70;;;16.40;98.50;;;;;;6215656;23;20485;-44
2023/09/23 03:13:11;;;;;;;3.00;0.63;;;16.40;57.40;;;;;;6216523;23;20389;-44
2023/09/23 03:16:08;;;;;;;1.40;0.60;;;16.40;33.10;;;;;;6216790;23;20365;-44
2023/09/23 03:18:36;;;;;;;1.10;0.60;;;16.50;18.60;;;;;;6216588;23;20485;-44
2023/09/23 03:21:10;;;;;;;1.23;0.70;;;16.40;1.00;;;;;;6215971;23;20562;-44
2023/09/23 03:23:39;;;;;;;2.67;1.00;;;16.40;1.00;;;;;;6217130;23;20377;-44
2023/09/23 03:26:06;;;;;;;1.30;0.70;;;16.40;1.00;;;;;;6216023;23;20385;-44
2023/09/23 03:28:35;;;;;;;1.10;0.60;;;16.40;1.00;;;;;;6216148;23;20396;-44
2023/09/23 03:31:01;;;;;;;1.30;0.70;;;16.40;1.00;;;;;;6216119;23;20871;-44
2023/09/23 03:33:27;;;;;;;3.60;0.70;;;16.40;1.00;;;;;;6215165;23;20353;-44
2023/09/23 03:35:56;;;;;;;1.20;0.50;;;16.40;1.00;;;;;;6190561;23;20407;-45
2023/09/23 03:38:22;;;;;;;1.00;0.50;;;16.40;1.00;;;;;;6217114;23;20603;-44
2023/09/23 03:40:57;;;;;;;1.10;0.63;;;16.40;1.00;;;;;;6216931;23;20409;-44
2023/09/23 03:43:24;;;;;;;0.90;0.50;;;16.40;1.00;;;;;;6217648;23;20154;-44
2023/09/23 03:45:50;;;;;;;1.13;0.50;;;16.40;1.00;;;;;;6216888;23;20408;-44
2023/09/23 03:48:16;;;;;;;1.20;0.60;;;16.40;1.00;;;;;;6217315;23;20352;-44
2023/09/23 03:50:42;;;;;;;1.67;0.60;;;16.40;1.00;;;;;;6216845;23;20801;-44
2023/09/23 03:53:09;;;;;;;1.60;0.60;;;16.40;1.00;;;;;;6218787;23;20185;-44
2023/09/23 03:55:34;;;;;;;1.20;0.70;;;16.40;1.00;;;;;;6218353;23;20768;-44
2023/09/23 03:58:02;;;;;;;2.17;0.80;;;16.40;1.00;;;;;;6217718;23;20380;-45
2023/09/23 04:00:27;;;;;;;1.47;0.60;;;16.40;1.00;;;;;;6217970;23;20130;-44
2023/09/23 04:02:54;;;;;;;1.17;0.77;;;16.40;1.00;;;;;;6215418;23;20399;-44
2023/09/23 04:05:20;;;;;;;1.00;0.57;;;16.30;1.00;;;;;;6216433;23;20158;-44
2023/09/23 04:07:49;;;;;;;1.20;0.50;;;16.30;1.00;;;;;;6215618;23;20471;-44
2023/09/23 04:10:17;;;;;;;2.57;0.90;;;16.30;1.00;;;;;;6216085;23;20396;-44
2023/09/23 04:12:43;;;;;;;1.47;0.60;;;16.20;1.00;;;;;;6216914;23;20445;-44
2023/09/23 04:15:09;;;;;;;1.40;0.77;;;16.20;1.00;;;;;;6215953;23;20368;-44
2023/09/23 04:17:37;;;;;;;2.23;0.90;;;16.20;1.00;;;;;;6219357;23;20244;-44
2023/09/23 04:20:09;;;;;;;2.30;0.90;;;16.20;1.00;;;;;;6218763;23;20432;-44
2023/09/23 04:22:38;;;;;;;0.90;0.40;;;16.20;1.00;;;;;;6218036;23;20416;-44
2023/09/23 04:25:08;;;;;;;1.47;0.63;;;16.20;1.00;;;;;;6218925;23;20487;-43
2023/09/23 04:27:36;;;;;;;2.50;0.93;;;16.20;1.00;;;;;;6218602;23;20491;-44
2023/09/23 04:30:04;;;;;;;1.70;0.60;;;16.20;1.00;;;;;;6218534;23;20412;-44
2023/09/23 04:32:30;;;;;;;1.20;0.60;;;16.20;1.00;;;;;;6219118;23;20392;-44
2023/09/23 04:34:56;;;;;;;1.20;0.73;;;16.20;1.00;;;;;;6218208;23;20384;-44
2023/09/23 04:37:23;;;;;;;2.57;0.60;;;16.20;1.00;;;;;;6217933;23;20208;-44
2023/09/23 04:39:50;;;;;;;1.33;0.70;;;16.20;1.00;;;;;;6217887;23;20165;-44
2023/09/23 04:42:16;;;;;;;1.20;0.60;;;16.20;1.00;;;;;;6217552;23;20657;-44
2023/09/23 04:44:42;;;;;;;1.57;0.83;;;16.20;1.00;;;;;;6218279;23;20547;-44
2023/09/23 04:47:08;;;;;;;1.50;0.70;;;16.20;1.00;;;;;;6217811;23;20800;-44
2023/09/23 04:49:33;;;;;;;1.47;0.80;;;16.20;1.00;;;;;;6216037;23;20208;-44
2023/09/23 04:51:59;;;;;;;1.90;0.73;;;16.20;1.00;;;;;;6216935;23;20173;-44
2023/09/23 04:54:24;;;;;;;1.10;0.60;;;16.20;1.00;;;;;;6217706;23;20130;-44
2023/09/23 04:56:50;;;;;;;2.63;0.80;;;16.20;1.00;;;;;;6217747;23;20178;-44
2023/09/23 04:59:16;;;;;;;1.27;0.83;;;16.20;1.00;;;;;;6217033;23;20337;-44
2023/09/23 05:01:41;;;;;;;1.40;0.73;;;16.20;1.00;;;;;;6217959;23;20158;-43
2023/09/23 05:04:08;;;;;;;4.43;1.00;;;16.20;1.00;;;;;;6216516;23;20548;-44
2023/09/23 05:06:35;;;;;;;1.90;1.20;;;16.20;1.00;;;;;;6217278;23;20130;-45
2023/09/23 05:09:01;;;;;;;1.90;0.90;;;16.20;1.00;;;;;;6215355;23;20504;-44
2023/09/23 05:11:27;;;;;;;1.50;0.90;;;16.20;1.00;;;;;;6189128;23;20378;-45
2023/09/23 05:13:52;;;;;;;3.20;1.00;;;16.20;1.00;;;;;;6215231;23;20471;-44
2023/09/23 05:16:18;;;;;;;2.90;0.80;;;16.20;1.00;;;;;;6213218;23;20153;-44
2023/09/23 05:18:44;;;;;;;1.10;0.60;;;16.20;1.00;;;;;;6212960;23;20195;-44
2023/09/23 05:21:10;;;;;;;1.40;0.70;;;16.20;1.00;;;;;;6214999;23;20141;-44
2023/09/23 05:23:36;;;;;;;1.40;0.80;;;16.20;1.00;;;;;;6214006;23;20154;-44
2023/09/23 05:26:04;;;;;;;1.20;0.67;;;16.10;1.00;;;;;;6213914;23;20389;-44
2023/09/23 05:28:30;;;;;;;1.67;0.83;;;16.20;1.00;;;;;;6213954;23;20661;-44
2023/09/23 05:30:56;;;;;;;1.57;0.67;;;16.20;1.00;;;;;;6210383;23;20424;-44
2023/09/23 05:33:24;;;;;;;1.20;0.70;;;16.20;1.00;;;;;;6211768;23;20384;-44
2023/09/23 05:35:51;;;;;;;1.70;0.90;;;16.20;1.00;;;;;;6211764;23;20760;-44
2023/09/23 05:38:19;;;;;;;1.67;0.60;;;16.20;1.00;;;;;;6212917;23;20150;-44
2023/09/23 05:40:46;;;;;;;1.83;0.80;;;16.30;1.00;;;;;;6213440;23;20413;-45
2023/09/23 05:43:12;;;;;;;1.00;0.60;;;16.30;1.00;;;;;;6214205;23;20515;-45
2023/09/23 05:45:38;;;;;;;1.50;0.90;;;16.30;1.00;;;;;;6215080;23;20356;-44
2023/09/23 05:48:05;;;;;;;2.03;0.90;;;16.30;1.00;;;;;;6216429;23;20349;-44
2023/09/23 05:50:31;;;;;;;1.60;0.80;;;16.40;1.00;;;;;;6214832;23;20477;-44
2023/09/23 05:52:57;;;;;;;1.30;0.60;;;16.40;1.00;;;;;;6214201;23;20439;-44
2023/09/23 05:55:23;;;;;;;1.23;0.60;;;16.40;1.00;;;;;;6213269;23;20384;-44
2023/09/23 05:57:51;;;;;;;1.57;0.90;;;16.50;1.00;;;;;;6185549;23;20239;-44
2023/09/23 06:00:17;;;;;;;1.30;0.60;;;16.50;1.00;;;;;;6212566;23;20345;-44
2023/09/23 06:02:47;;;;;;;1.10;0.70;;;16.50;1.00;;;;;;6213175;23;20538;-44
2023/09/23 06:05:14;;;;;;;1.33;0.70;;;16.50;1.00;;;;;;6212748;23;20867;-44
2023/09/23 06:07:43;;;;;;;1.73;0.90;;;16.60;99.90;;;;;;6212700;23;20399;-44
2023/09/23 06:10:10;;;;;;;2.13;0.93;;;16.60;99.90;;;;;;6212785;23;20490;-45
2023/09/23 06:12:36;;;;;;;1.20;0.73;;;16.60;99.90;;;;;;6212202;23;20621;-44
2023/09/23 06:15:05;;;;;;;1.87;0.80;;;16.70;99.90;;;;;;6213396;23;20361;-45
2023/09/23 06:17:32;;;;;;;2.60;1.07;;;16.70;99.90;;;;;;6186054;23;20400;-44
2023/09/23 06:19:59;;;;;;;1.23;0.70;;;16.80;99.90;;;;;;6211964;23;20392;-44
2023/09/23 06:22:26;;;;;;;1.13;0.80;;;16.80;99.90;;;;;;6187441;23;20384;-44
2023/09/23 06:24:53;;;;;;;1.53;0.90;;;16.90;99.90;;;;;;6214317;23;20761;-45
2023/09/23 06:27:19;;;;;;;1.53;0.80;;;16.90;99.90;;;;;;6210707;23;20439;-44
2023/09/23 06:29:45;;;;;;;1.30;0.73;;;17.00;99.90;;;;;;6212825;23;20424;-44
2023/09/23 06:32:11;;;;;;;3.30;0.93;;;17.00;99.90;;;;;;6214666;23;20389;-44
2023/09/23 06:34:37;;;;;;;1.40;0.80;;;17.10;99.90;;;;;;6214245;23;20392;-44
2023/09/23 06:37:04;;;;;;;1.10;0.80;;;17.10;99.90;;;;;;6188845;23;20377;-44
2023/09/23 06:39:29;;;;;;;1.50;0.70;;;17.20;99.90;;;;;;6215691;23;20130;-44
2023/09/23 06:41:55;;;;;;;1.43;0.83;;;17.20;99.90;;;;;;6187373;23;20503;-44
2023/09/23 06:44:21;;;;;;;1.17;0.80;;;17.20;99.90;;;;;;6213701;23;20161;-44
2023/09/23 06:46:47;;;;;;;1.50;0.97;;;17.30;99.90;;;;;;6215871;23;20685;-44
2023/09/23 06:49:13;;;;;;;1.27;0.70;;;17.30;99.90;;;;;;6163979;23;20221;-44
2023/09/23 06:51:39;;;;;;;1.60;0.70;;;17.30;99.90;;;;;;6215986;23;20680;-44
2023/09/23 06:54:05;;;;;;;1.60;0.90;;;17.40;99.90;;;;;;6188296;23;20580;-44
2023/09/23 06:56:30;;;;;;;1.30;0.60;;;17.50;99.90;;;;;;6215164;23;20169;-44
2023/09/23 06:58:56;;;;;;;1.23;0.60;;;17.50;99.90;;;;;;6213341;23;20736;-44
2023/09/23 07:01:22;;;;;;;2.83;0.80;;;17.60;99.90;;;;;;6214605;23;20176;-43
2023/09/23 07:03:48;;;;;;;12.73;1.13;;;17.80;99.90;;;;;;6213431;23;20164;-43
2023/09/23 07:06:14;;;;;;;1.40;0.73;;;18.10;99.90;;;;;;6213913;23;20134;-43
2023/09/23 07:08:40;;;;;;;3.43;0.80;;;18.40;99.90;;;;;;6185929;23;20449;-42
2023/09/23 07:11:11;;;;;;;2.20;1.27;;;18.60;99.90;;;;;;6212599;23;20150;-43
2023/09/23 07:13:37;;;;;;;1.10;0.60;;;18.90;98.40;;;;;;6212718;23;20498;-43
2023/09/23 07:16:03;;;;;;;1.33;0.70;;;19.20;70.00;;;;;;6214382;23;20385;-43
2023/09/23 07:18:28;;;;;;;1.60;1.00;;;19.50;37.10;;;;;;6215273;23;20134;-43
2023/09/23 07:20:57;;;;;;;2.13;0.73;;;19.70;15.70;;;;;;6216217;23;20272;-42
2023/09/23 07:23:24;;;;;;;1.87;0.80;;;20.00;1.00;;;;;;6217494;23;20153;-43
2023/09/23 07:25:50;;;;;;;1.93;0.80;;;20.30;1.00;;;;;;6217144;23;20442;-43
2023/09/23 07:28:16;;;;;;;2.07;0.80;;;20.60;1.00;;;;;;6216322;23;20601;-43
2023/09/23 07:30:41;;;;;;;1.50;0.87;;;21.00;1.00;;;;;;6215640;23;20440;-42
2023/09/23 07:33:07;;;;;;;3.27;1.13;;;21.30;1.00;;;;;;6217769;23;20149;-42
2023/09/23 07:35:33;;;;;;;1.40;0.77;;;21.70;1.00;;;;;;6218000;23;20182;-43
2023/09/23 07:38:00;;;;;;;1.47;0.80;;;22.30;1.00;;;;;;6217240;23;20177;-43
2023/09/23 07:40:30;;;;;;;1.97;0.87;;;22.90;1.00;;;;;;6217763;23;20381;-42
2023/09/23 07:42:55;;;;;;;1.70;0.73;;;23.70;1.00;;;;;;6217608;23;20384;-43
2023/09/23 07:45:21;;;;;;;1.50;0.90;;;24.60;1.00;;;;;;6215726;23;20649;-43
2023/09/23 07:47:47;;;;;;;2.63;1.17;;;25.20;1.00;;;;;;6216835;23;20580;-43
2023/09/23 07:50:13;;;;;;;1.87;0.87;;;25.60;1.00;;;;;;6216656;23;20228;-43
2023/09/23 07:52:39;;;;;;;2.17;0.90;;;25.90;1.00;;;;;;6217532;23;20701;-43
2023/09/23 07:55:05;;;;;;;2.07;1.30;;;26.00;1.00;;;;;;6214854;23;20226;-43
2023/09/23 07:57:32;;;;;;;1.93;0.90;;;25.70;1.00;;;;;;6214823;23;20200;-43
2023/09/23 07:59:58;;;;;;;4.20;1.10;;;25.40;1.00;;;;;;6214242;23;20361;-43
2023/09/23 08:02:23;;;;;;;1.50;1.00;;;25.10;1.00;;;;;;6212329;23;20477;-43
2023/09/23 08:04:49;;;;;;;2.70;0.90;;;25.10;1.00;;;;;;6212115;23;20389;-43
2023/09/23 08:07:15;;;;;;;1.40;0.80;;;25.30;1.00;;;;;;6213086;23;20154;-42
2023/09/23 08:09:41;;;;;;;1.67;0.90;;;25.70;1.00;;;;;;6212696;23;20500;-42
2023/09/23 08:12:07;;;;;;;1.87;0.90;;;26.30;1.00;;;;;;6212832;23;20421;-43
2023/09/23 08:14:32;;;;;;;2.07;0.90;;;26.90;1.00;;;;;;6211104;23;20154;-42
2023/09/23 08:16:58;;;;;;;1.20;0.70;;;27.20;1.00;;;;;;6212202;23;20233;-42
2023/09/23 08:19:24;;;;;;;1.80;1.07;;;27.70;1.00;;;;;;6211458;23;20165;-42
2023/09/23 08:21:50;;;;;;;1.43;0.93;;;28.20;1.00;;;;;;6211467;23;20307;-43
2023/09/23 08:24:15;;;;;;;1.73;0.80;;;28.50;1.00;;;;;;6211173;23;20365;-42
2023/09/23 08:26:41;;;;;;;2.00;0.90;;;29.00;1.00;;;;;;6212847;23;20220;-43
2023/09/23 08:29:07;;;;;;;3.60;1.63;;;29.70;1.00;;;;;;6215620;23;20503;-40
2023/09/23 08:31:32;;;;;;;2.63;1.00;;;30.50;1.00;;;;;;6215223;23;20202;-41
2023/09/23 08:33:58;;;;;;;1.90;1.07;;;31.10;1.00;;;;;;6215177;23;20160;-41
2023/09/23 08:36:24;;;;;;;2.20;0.90;;;31.80;1.00;;;;;;6214992;23;20213;-41
2023/09/23 08:38:50;;;;;;;3.40;1.27;;;32.40;1.00;;;;;;6213214;23;20355;-45
2023/09/23 08:41:17;;;;;;;1.77;1.20;;;32.80;1.00;;;;;;6214404;23;20160;-43
2023/09/23 08:43:43;;;;;;;2.90;1.30;;;33.30;1.00;;;;;;6214551;23;20154;-43
2023/09/23 08:46:11;;;;;;;2.40;1.07;;;33.60;1.00;;;;;;6213439;23;20424;-43
2023/09/23 08:48:38;;;;;;;2.43;1.50;;;34.40;1.00;;;;;;6185918;23;20463;-43
2023/09/23 08:51:10;;;;;;;1.67;1.00;;;34.80;1.00;;;;;;6211214;23;20388;-45
2023/09/23 08:53:38;;;;;;;2.17;1.27;;;35.20;1.00;;;;;;6186856;23;20355;-44
2023/09/23 08:56:08;;;;;;;1.73;1.00;;;35.60;1.00;;;;;;6212293;23;20406;-45
2023/09/23 08:58:33;;;;;;;2.60;1.10;;;35.80;1.00;;;;;;6211310;23;20403;-44
2023/09/23 09:01:00;;;;;;;2.43;1.07;;;36.20;1.00;;;;;;6185281;23;20773;-44
2023/09/23 09:03:26;;;;;;;2.83;1.40;;;36.60;1.00;;;;;;6211570;23;20236;-44
2023/09/23 09:05:52;;;;;;;6.10;2.10;;;36.90;1.00;;;;;;6213484;23;20340;-37
2023/09/23 09:08:18;;;;;;;11.57;2.30;;;37.10;1.00;;;;;;6212065;23;20158;-39
2023/09/23 09:10:44;;;;;;;5.00;1.93;;;35.60;1.00;;;;;;6212507;23;20356;-38
2023/09/23 09:13:10;;;;;;;5.80;1.83;;;34.00;1.00;;;;;;6213188;23;20417;-37
2023/09/23 09:15:37;;;;;;;6.37;2.13;;;32.70;1.00;;;;;;6213630;23;20398;-36
2023/09/23 09:18:03;;;;;;;3.43;1.40;;;31.50;1.00;;;;;;6216627;23;20141;-38
2023/09/23 09:20:30;;;;;;;7.50;2.27;;;30.90;1.00;;;;;;6212772;23;20374;-35
2023/09/23 09:22:55;;;;;;;3.53;1.50;;;30.50;1.00;;;;;;6215295;23;20385;-35
2023/09/23 09:25:21;;;;;;;12.57;2.20;;;30.00;1.00;;;;;;6215482;23;20385;-43
2023/09/23 09:27:47;;;;;;;7.17;1.73;;;29.80;1.00;;;;;;6215957;23;20162;-43
2023/09/23 09:30:14;;;;;;;3.37;1.30;;;29.80;1.00;;;;;;6215787;23;20462;-43
2023/09/23 09:32:42;;;;;;;5.20;1.27;;;29.80;1.00;;;;;;6212646;23;20392;-44
2023/09/23 09:35:13;;;;;;;5.00;1.60;;;29.90;1.00;;;;;;6214986;23;20355;-44
2023/09/23 09:37:43;;;;;;;7.40;1.83;;;30.10;1.00;;;;;;6215162;23;20764;-45
2023/09/23 09:40:13;;;;;;;3.90;1.47;;;30.20;1.00;;;;;;6213487;23;20428;-45
2023/09/23 09:42:40;;;;;;;2.80;1.47;;;30.30;1.00;;;;;;6212812;23;20357;-44
2023/09/23 09:45:10;;;;;;;3.10;1.70;;;30.20;1.00;;;;;;6212976;23;20361;-44
2023/09/23 09:47:38;;;;;;;2.53;1.10;;;30.30;1.00;;;;;;6209847;23;20432;-44
2023/09/23 09:50:04;;;;;;;2.50;1.30;;;30.30;1.00;;;;;;6209246;23;20442;-44
2023/09/23 09:52:31;;;;;;;2.67;1.47;;;30.20;1.00;;;;;;6185876;23;20919;-44
2023/09/23 09:54:58;;;;;;;4.10;2.10;;;30.40;1.00;;;;;;6185177;23;20437;-45
2023/09/23 09:57:28;;;;;;;3.07;1.33;;;30.50;1.00;;;;;;6212945;23;20360;-45
2023/09/23 09:59:59;;;;;;;5.87;1.60;;;30.50;1.00;;;;;;6186504;23;20376;-44
2023/09/23 10:02:25;;;;;;;6.27;1.70;;;30.80;1.00;;;;;;6210777;23;20501;-45
2023/09/23 10:04:52;;;;;;;9.10;1.67;;;31.00;1.00;;;;;;6211133;23;20946;-46
2023/09/23 10:07:18;;;;;;;4.33;1.47;;;31.20;1.00;;;;;;6210499;23;20177;-47
2023/09/23 10:09:53;;;;;;;3.40;1.80;;;31.30;1.00;;;;;;6211673;23;20419;-47
2023/09/23 10:12:26;;;;;;;2.37;1.30;;;31.30;1.00;;;;;;6212690;23;20130;-47
2023/09/23 10:14:56;;;;;;;4.30;1.40;;;31.50;1.00;;;;;;6211404;23;20768;-47
2023/09/23 10:17:32;;;;;;;3.03;1.30;;;31.80;1.00;;;;;;6187844;23;20378;-46
2023/09/23 10:19:59;;;;;;;3.20;1.40;;;32.10;1.00;;;;;;6185201;23;20406;-46
2023/09/23 10:22:28;;;;;;;2.50;1.40;;;32.40;1.00;;;;;;6215003;23;20363;-45
2023/09/23 10:25:03;;;;;;;3.20;1.47;;;32.70;1.00;;;;;;6189397;23;20672;-46
2023/09/23 10:27:29;;;;;;;2.40;1.40;;;33.00;1.00;;;;;;6212784;23;20360;-46
2023/09/23 10:29:55;;;;;;;4.03;1.43;;;32.80;1.00;;;;;;6208020;23;20738;-47
2023/09/23 10:32:21;;;;;;;4.33;1.50;;;32.60;1.00;;;;;;6185832;23;20149;-47
2023/09/23 10:34:58;;;;;;;4.77;1.40;;;32.50;1.00;;;;;;6216120;23;20432;-47
2023/09/23 10:37:32;;;;;;;6.07;1.53;;;32.60;1.00;;;;;;6213545;23;20390;-47
2023/09/23 10:40:12;;;;;;;2.03;1.40;;;32.10;1.00;;;;;;6206312;23;20496;-47
2023/09/23 10:42:38;;;;;;;5.47;1.77;;;31.80;1.00;;;;;;6182721;23;20372;-40
2023/09/23 10:45:05;;;;;;;2.93;1.50;;;31.70;1.00;;;;;;6209419;23;20656;-40
2023/09/23 10:47:31;;;;;;;4.20;1.40;;;31.20;1.00;;;;;;6185095;23;20820;-39
2023/09/23 10:50:00;;;;;;;3.40;1.43;;;31.00;1.00;;;;;;6186313;23;20441;-39
2023/09/23 10:52:26;;;;;;;1.90;1.27;;;31.50;1.00;;;;;;6211433;23;20542;-40
2023/09/23 10:54:51;;;;;;;3.13;1.50;;;32.10;1.00;;;;;;6159746;23;20398;-39
2023/09/23 10:57:17;;;;;;;3.43;1.33;;;32.80;1.00;;;;;;6209710;23;20791;-41
2023/09/23 10:59:46;;;;;;;3.10;1.57;;;33.20;1.00;;;;;;6212266;23;20300;-38
2023/09/23 11:02:13;;;;;;;3.10;1.27;;;32.80;1.00;;;;;;6211877;23;20153;-41
2023/09/23 11:04:39;;;;;;;2.63;1.43;;;32.10;1.00;;;;;;6184263;23;20368;-40
2023/09/23 11:07:06;;;;;;;2.13;1.13;;;31.90;1.00;;;;;;6210874;23;20378;-41
2023/09/23 11:09:32;;;;;;;3.70;1.30;;;31.40;1.00;;;;;;6208610;23;20174;-38
2023/09/23 11:12:07;;;;;;;2.07;1.17;;;30.90;1.00;;;;;;6209615;23;20402;-41
2023/09/23 11:14:33;;;;;;;1.83;1.07;;;30.40;1.00;;;;;;6210582;23;20153;-40
2023/09/23 11:17:00;;;;;;;2.40;1.03;;;30.50;1.00;;;;;;6211318;23;20385;-39
2023/09/23 11:19:33;;;;;;;2.77;1.30;;;30.60;1.00;;;;;;6210622;23;20389;-40
2023/09/23 11:22:03;;;;;;;3.30;1.47;;;31.30;1.00;;;;;;6210910;23;20393;-39
2023/09/23 11:24:38;;;;;;;5.00;1.70;;;32.10;1.00;;;;;;6211404;23;20414;-39
2023/09/23 11:27:08;;;;;;;2.93;1.30;;;32.30;1.00;;;;;;6212276;23;20374;-39
2023/09/23 11:29:33;;;;;;;2.33;2.10;;;31.70;1.00;;;;;;6212257;23;20892;-41
2023/09/23 11:31:59;;;;;;;3.00;2.80;;;31.10;1.00;;;;;;6212327;23;20359;-42
2023/09/23 11:34:25;;;;;;;3.20;1.73;;;30.80;1.00;;;;;;6213832;23;20234;-38
2023/09/23 11:36:50;;;;;;;2.63;1.77;;;31.00;1.00;;;;;;6212328;23;20667;-39
2023/09/23 11:39:16;;;;;;;3.47;1.43;;;31.60;1.00;;;;;;6210718;23;20220;-38
2023/09/23 11:41:42;;;;;;;1.80;1.20;;;31.80;1.00;;;;;;6211165;23;20206;-40
2023/09/23 11:44:08;;;;;;;5.60;1.30;;;32.10;1.00;;;;;;6185706;23;20534;-39
2023/09/23 11:46:33;;;;;;;3.30;1.27;;;32.40;1.00;;;;;;6211631;23;20237;-39
2023/09/23 11:48:59;;;;;;;3.00;1.30;;;32.70;1.00;;;;;;6211635;23;20446;-39
2023/09/23 11:51:25;;;;;;;2.97;1.70;;;32.50;1.00;;;;;;6212034;23;20166;-38
2023/09/23 11:53:50;;;;;;;2.40;1.43;;;32.10;1.00;;;;;;6213146;23;20560;-42
2023/09/23 11:56:16;;;;;;;5.20;1.83;;;32.30;1.00;;;;;;6210003;23;20237;-40
2023/09/23 11:58:41;;;;;;;1.63;1.30;;;31.90;1.00;;;;;;6209322;23;20268;-40
2023/09/23 12:01:08;;;;;;;2.07;1.27;;;31.50;1.00;;;;;;6211152;23;20244;-38
2023/09/23 12:03:33;;;;;;;2.57;1.40;;;31.00;1.00;;;;;;6186646;23;20136;-40
2023/09/23 12:05:59;;;;;;;3.77;3.47;;;30.40;1.00;;;;;;6211855;23;20403;-38
2023/09/23 12:08:24;;;;;;;5.30;3.30;;;29.70;1.00;;;;;;6211869;23;20165;-38
2023/09/23 12:10:50;;;;;;;2.70;2.50;;;29.20;1.00;;;;;;6211866;23;20150;-38
2023/09/23 12:13:16;;;;;;;2.10;1.73;;;28.60;1.00;;;;;;6212337;23;20200;-41
2023/09/23 12:15:41;;;;;;;2.57;1.77;;;28.10;1.00;;;;;;6211558;23;20134;-40
2023/09/23 12:18:07;;;;;;;2.17;1.40;;;27.70;1.00;;;;;;6186446;23;20162;-39
2023/09/23 12:20:33;;;;;;;1.90;1.30;;;27.40;1.00;;;;;;6186743;23;20450;-38
2023/09/23 12:23:00;;;;;;;2.90;1.63;;;27.00;1.00;;;;;;6163690;23;20201;-39
2023/09/23 12:25:26;;;;;;;2.93;1.40;;;26.70;1.00;;;;;;6213375;23;20154;-38
2023/09/23 12:27:51;;;;;;;2.73;1.47;;;26.50;1.00;;;;;;6214172;23;20389;-39
2023/09/23 12:30:17;;;;;;;1.90;1.50;;;26.30;1.00;;;;;;6213279;23;20168;-38
2023/09/23 12:32:43;;;;;;;2.10;1.83;;;26.10;1.00;;;;;;6212472;23;20149;-38
2023/09/23 12:35:09;;;;;;;2.30;1.60;;;26.00;1.00;;;;;;6215519;23;20460;-39
2023/09/23 12:37:35;;;;;;;1.97;1.43;;;26.00;1.00;;;;;;6186147;23;20377;-39
2023/09/23 12:40:01;;;;;;;2.50;1.53;;;26.50;1.00;;;;;;6212462;23;20675;-41
2023/09/23 12:42:28;;;;;;;2.00;1.43;;;27.70;1.00;;;;;;6208104;23;20130;-38
2023/09/23 12:44:54;;;;;;;2.43;1.30;;;29.10;1.00;;;;;;6209507;23;20631;-39
2023/09/23 12:47:20;;;;;;;4.37;1.60;;;30.40;1.00;;;;;;6209050;23;20359;-40
2023/09/23 12:49:46;;;;;;;7.27;1.80;;;31.20;1.00;;;;;;6211354;23;20312;-41
2023/09/23 12:52:11;;;;;;;8.30;1.77;;;31.10;1.00;;;;;;6209557;23;20628;-41
2023/09/23 12:54:37;;;;;;;1.70;0.83;;;30.70;1.00;;;;;;6211438;23;20423;-40